Time;durP1;ratioP1;P1;durP2;ratioP2;P2;SDS_P1;SDS_P2;PMS_P1;PMS_P2;Temp;Humidity;BMP_temperature;BMP_pressure;BME280_temperature;BME280_humidity;BME280_pressure;Samples;Min_cycle;Max_cycle;Signal;HPM_P1;HPM_P2
2021/01/30 00:00:55;;;;;;;4.57;0.80;;;4.50;99.90;;;;;;4958790;28;20026;-91
2021/01/30 00:03:21;;;;;;;3.20;0.80;;;4.60;99.90;;;;;;4958841;28;20022;-91
2021/01/30 00:05:47;;;;;;;0.90;0.60;;;4.50;99.90;;;;;;4958018;28;20403;-91
2021/01/30 00:08:14;;;;;;;0.70;0.70;;;4.60;99.90;;;;;;4958809;28;20134;-91
2021/01/30 00:10:40;;;;;;;0.70;0.60;;;4.60;99.90;;;;;;4958575;28;20026;-91
2021/01/30 00:13:07;;;;;;;0.60;0.60;;;4.60;99.90;;;;;;4959146;28;20026;-91
2021/01/30 00:15:33;;;;;;;2.38;0.60;;;4.60;99.90;;;;;;4962282;28;20096;-91
2021/01/30 00:17:59;;;;;;;0.65;0.63;;;4.60;99.90;;;;;;4961324;28;20026;-91
2021/01/30 00:20:32;;;;;;;0.82;0.68;;;4.60;99.90;;;;;;4962320;28;20126;-91
2021/01/30 00:22:58;;;;;;;1.00;0.68;;;4.50;99.90;;;;;;4962374;28;20026;-91
2021/01/30 00:25:30;;;;;;;2.65;0.65;;;4.60;99.90;;;;;;4961771;28;20022;-90
2021/01/30 00:27:57;;;;;;;0.82;0.55;;;4.60;99.90;;;;;;4962538;28;20472;-91
2021/01/30 00:30:26;;;;;;;2.42;0.88;;;4.60;99.90;;;;;;4962159;28;20145;-91
2021/01/30 00:32:52;;;;;;;0.77;0.68;;;4.60;99.90;;;;;;4962316;28;20476;-91
2021/01/30 00:35:23;;;;;;;0.45;0.45;;;4.70;99.90;;;;;;4977770;28;20502;-91
2021/01/30 00:37:49;;;;;;;3.00;0.80;;;4.70;99.90;;;;;;4962216;28;20029;-91
2021/01/30 00:40:17;;;;;;;0.60;0.60;;;4.80;99.90;;;;;;4962053;28;20022;-91
2021/01/30 00:42:43;;;;;;;3.08;0.70;;;4.80;99.90;;;;;;4978627;28;20034;-91
2021/01/30 00:45:11;;;;;;;0.47;0.47;;;4.90;99.90;;;;;;4961607;28;20026;-91
2021/01/30 00:47:37;;;;;;;0.85;0.85;;;4.90;99.90;;;;;;4962091;28;20033;-91
2021/01/30 00:50:04;;;;;;;3.05;0.60;;;4.90;99.90;;;;;;4961931;28;20039;-91
2021/01/30 00:52:29;;;;;;;0.82;0.50;;;4.90;99.90;;;;;;4963968;28;20223;-90
2021/01/30 00:54:55;;;;;;;0.60;0.60;;;4.90;99.90;;;;;;4961232;28;20026;-91
2021/01/30 00:57:21;;;;;;;0.75;0.60;;;4.90;99.90;;;;;;4962168;28;20033;-91
2021/01/30 00:59:47;;;;;;;0.50;0.50;;;4.80;99.90;;;;;;4961824;28;20030;-90
2021/01/30 01:02:13;;;;;;;0.43;0.40;;;4.90;99.90;;;;;;4977624;28;20022;-91
2021/01/30 01:04:42;;;;;;;2.08;0.63;;;4.90;99.90;;;;;;4961195;28;20061;-91
2021/01/30 01:07:23;;;;;;;0.88;0.63;;;4.90;99.90;;;;;;4961561;28;20034;-91
2021/01/30 01:09:54;;;;;;;1.17;0.80;;;4.90;99.90;;;;;;4959883;28;20034;-91
2021/01/30 01:12:36;;;;;;;;;;;;;;;;;;;;;
2021/01/30 01:15:03;;;;;;;3.30;0.70;;;4.80;99.90;;;;;;4977519;28;20026;-90
2021/01/30 01:17:42;;;;;;;0.60;0.60;;;4.80;99.90;;;;;;4960897;28;20027;-91
2021/01/30 01:20:21;;;;;;;1.70;0.80;;;4.80;99.90;;;;;;4962845;28;20506;-91
2021/01/30 01:22:53;;;;;;;1.77;0.73;;;4.80;99.90;;;;;;4961473;28;20177;-90
2021/01/30 01:25:31;;;;;;;1.77;0.77;;;4.70;99.90;;;;;;4960883;28;20027;-91
2021/01/30 01:28:00;;;;;;;4.53;0.98;;;4.80;99.90;;;;;;4960910;28;20038;-91
2021/01/30 01:30:34;;;;;;;1.70;0.80;;;4.80;99.90;;;;;;4960552;28;20062;-91
2021/01/30 01:33:10;;;;;;;;;;;4.80;99.90;;;;;;4962692;28;20019;-90
2021/01/30 01:35:41;;;;;;;1.70;0.68;;;4.80;99.90;;;;;;4976201;28;19964;-91
2021/01/30 01:38:12;;;;;;;1.65;0.70;;;4.80;99.90;;;;;;4960449;28;20037;-91
2021/01/30 01:40:50;;;;;;;2.00;1.08;;;4.80;99.90;;;;;;4977020;28;20125;-91
2021/01/30 01:43:31;;;;;;;2.97;1.27;;;4.80;99.90;;;;;;4960912;28;20041;-91
2021/01/30 01:45:59;;;;;;;1.40;0.80;;;4.90;99.90;;;;;;4959196;28;20554;-91
2021/01/30 01:48:37;;;;;;;3.88;0.82;;;4.90;99.90;;;;;;4961077;28;20135;-91
2021/01/30 01:51:23;;;;;;;3.55;1.00;;;4.90;99.90;;;;;;4961868;28;20022;-90
2021/01/30 01:54:06;;;;;;;3.22;0.73;;;5.00;99.90;;;;;;4978545;28;20102;-91
2021/01/30 01:56:43;;;;;;;3.50;1.30;;;5.00;99.90;;;;;;4962478;28;20041;-91
2021/01/30 01:59:24;;;;;;;1.15;0.85;;;5.00;99.90;;;;;;4961281;28;20484;-91
2021/01/30 02:02:02;;;;;;;1.48;0.98;;;5.00;99.90;;;;;;4976442;28;20117;-91
2021/01/30 02:04:52;;;;;;;2.55;0.80;;;4.90;99.90;;;;;;4960459;28;20122;-91
2021/01/30 02:07:23;;;;;;;1.85;0.80;;;4.90;99.90;;;;;;4973539;28;20027;-90
2021/01/30 02:09:53;;;;;;;2.58;0.90;;;4.90;99.90;;;;;;4968396;28;20022;-91
2021/01/30 02:12:19;;;;;;;1.45;0.90;;;4.90;99.90;;;;;;4960699;28;20018;-91
2021/01/30 02:14:47;;;;;;;2.22;0.93;;;4.90;99.90;;;;;;4960089;28;20026;-91
2021/01/30 02:17:18;;;;;;;3.30;1.00;;;4.80;99.90;;;;;;4958983;28;20475;-91
2021/01/30 02:20:03;;;;;;;1.17;0.75;;;4.80;99.90;;;;;;4960596;28;20081;-90
2021/01/30 02:22:42;;;;;;;1.52;0.90;;;4.80;99.90;;;;;;4960255;28;20365;-91
2021/01/30 02:25:31;;;;;;;2.75;1.05;;;4.80;99.90;;;;;;4959892;28;20525;-91
2021/01/30 02:28:22;;;;;;;3.30;0.98;;;4.90;99.90;;;;;;4960208;28;20054;-89
2021/01/30 02:31:01;;;;;;;0.70;0.70;;;4.90;99.90;;;;;;4960133;28;20030;-91
2021/01/30 02:34:02;;;;;;;1.98;1.02;;;4.90;99.90;;;;;;4960169;28;20037;-91
2021/01/30 02:36:41;;;;;;;2.33;0.82;;;4.90;99.90;;;;;;4959452;28;20023;-91
2021/01/30 02:39:28;;;;;;;1.77;0.90;;;4.90;99.90;;;;;;4976015;28;20080;-91
2021/01/30 02:42:14;;;;;;;1.50;0.70;;;4.80;99.90;;;;;;4961169;28;20277;-91
2021/01/30 02:45:08;;;;;;;1.95;0.98;;;4.80;99.90;;;;;;4958741;28;20042;-91
2021/01/30 02:47:47;;;;;;;1.92;0.95;;;4.80;99.90;;;;;;4951059;28;20026;-91
2021/01/30 02:50:29;;;;;;;3.05;1.02;;;4.80;99.90;;;;;;4959921;28;20034;-91
2021/01/30 02:53:13;;;;;;;2.38;1.10;;;4.80;99.90;;;;;;4960013;28;20038;-91
2021/01/30 02:55:47;;;;;;;1.95;1.00;;;4.90;99.90;;;;;;4959649;28;20377;-91
2021/01/30 02:58:17;;;;;;;2.97;1.05;;;4.90;99.90;;;;;;4959939;28;20026;-90
2021/01/30 03:00:45;;;;;;;3.58;0.95;;;4.90;99.90;;;;;;4975543;28;20018;-90
2021/01/30 03:03:22;;;;;;;1.65;0.77;;;4.80;99.90;;;;;;4959259;28;20045;-91
2021/01/30 03:06:00;;;;;;;2.55;1.23;;;4.90;99.90;;;;;;4959703;28;20034;-91
2021/01/30 03:09:02;;;;;;;2.38;0.93;;;4.90;99.90;;;;;;4959580;28;20435;-90
2021/01/30 03:11:39;;;;;;;4.35;1.15;;;4.90;99.90;;;;;;4974465;28;20697;-91
2021/01/30 03:14:25;;;;;;;3.72;1.60;;;4.90;99.90;;;;;;4959585;28;20077;-91
2021/01/30 03:17:00;;;;;;;2.92;1.00;;;4.90;99.90;;;;;;4958494;28;20109;-91
2021/01/30 03:19:33;;;;;;;1.00;0.63;;;4.90;99.90;;;;;;4959656;28;20054;-91
2021/01/30 03:22:23;;;;;;;1.13;1.00;;;4.90;99.90;;;;;;4958615;28;20027;-91
2021/01/30 03:25:00;;;;;;;2.30;0.80;;;5.00;99.90;;;;;;4959147;28;20026;-91
2021/01/30 03:27:43;;;;;;;;;;;;;;;;;;;;;
2021/01/30 03:30:22;;;;;;;1.60;0.68;;;4.90;99.90;;;;;;4991646;28;20365;-91
2021/01/30 03:33:06;;;;;;;3.38;1.40;;;4.90;99.90;;;;;;4959064;28;20030;-91
2021/01/30 03:35:44;;;;;;;1.63;0.90;;;4.80;99.90;;;;;;4964134;28;20035;-90
2021/01/30 03:38:10;;;;;;;2.50;0.85;;;4.90;99.90;;;;;;4965898;28;20053;-91
2021/01/30 03:40:44;;;;;;;0.73;0.60;;;4.90;99.90;;;;;;4959973;28;20038;-90
2021/01/30 03:43:15;;;;;;;0.60;0.60;;;5.00;99.90;;;;;;4960105;28;20574;-91
2021/01/30 03:45:59;;;;;;;3.00;0.65;;;5.00;99.90;;;;;;4975942;28;20038;-91
2021/01/30 03:48:30;;;;;;;4.90;1.13;;;5.00;99.90;;;;;;4958485;28;20030;-91
2021/01/30 03:51:01;;;;;;;1.52;0.60;;;5.00;99.90;;;;;;4959373;28;20200;-91
2021/01/30 03:53:39;;;;;;;2.53;1.10;;;5.00;99.90;;;;;;4959863;28;20685;-91
2021/01/30 03:56:23;;;;;;;3.53;0.80;;;4.90;99.90;;;;;;4974565;28;20022;-91
2021/01/30 03:58:54;;;;;;;3.40;0.73;;;5.00;99.90;;;;;;4958895;28;20052;-91
2021/01/30 04:01:30;;;;;;;1.33;0.70;;;5.00;99.90;;;;;;4957675;28;20142;-90
2021/01/30 04:04:09;;;;;;;2.50;0.93;;;5.00;99.90;;;;;;4975167;28;20036;-90
2021/01/30 04:06:49;;;;;;;6.43;2.33;;;5.00;99.90;;;;;;4958356;28;20414;-91
2021/01/30 04:09:27;;;;;;;2.63;0.77;;;5.00;99.90;;;;;;4957716;28;20042;-91
2021/01/30 04:11:56;;;;;;;1.42;0.93;;;5.10;99.90;;;;;;4958395;28;20041;-91
2021/01/30 04:14:32;;;;;;;;;;;5.10;99.90;;;;;;4958300;28;20031;-91
2021/01/30 04:17:04;;;;;;;5.30;1.13;;;5.00;99.90;;;;;;4974804;28;19912;-91
2021/01/30 04:19:30;;;;;;;1.75;1.08;;;5.00;99.90;;;;;;4958668;28;20038;-90
2021/01/30 04:22:08;;;;;;;7.63;1.20;;;5.00;99.90;;;;;;4958713;28;20510;-91
2021/01/30 04:24:44;;;;;;;3.17;0.90;;;5.00;99.90;;;;;;4958781;28;20072;-91
2021/01/30 04:27:15;;;;;;;3.67;1.17;;;5.10;99.90;;;;;;4959045;28;20057;-90
2021/01/30 04:29:50;;;;;;;2.13;1.02;;;5.10;99.90;;;;;;4958627;28;20391;-91
2021/01/30 04:32:24;;;;;;;3.88;1.05;;;5.10;99.90;;;;;;4959595;28;20031;-90
2021/01/30 04:34:50;;;;;;;3.40;0.70;;;5.10;99.90;;;;;;4973950;28;20029;-91
2021/01/30 04:37:16;;;;;;;5.05;1.15;;;5.10;99.90;;;;;;4958346;28;20105;-91
2021/01/30 04:39:51;;;;;;;2.45;1.00;;;5.10;99.90;;;;;;4958361;28;20026;-90
2021/01/30 04:42:45;;;;;;;1.92;0.85;;;5.10;99.90;;;;;;4958699;28;20025;-91
2021/01/30 04:45:34;;;;;;;7.60;1.63;;;5.10;99.90;;;;;;4974078;28;20042;-91
2021/01/30 04:48:33;;;;;;;4.82;1.50;;;5.10;99.90;;;;;;4958228;28;20026;-91
2021/01/30 04:51:24;;;;;;;3.60;1.20;;;5.10;99.90;;;;;;4974336;28;20026;-91
2021/01/30 04:54:08;;;;;;;3.42;0.77;;;5.10;99.90;;;;;;4922458;28;20030;-91
2021/01/30 04:57:04;;;;;;;7.07;1.05;;;5.10;99.90;;;;;;4957915;28;20510;-91
2021/01/30 04:59:36;;;;;;;3.65;1.13;;;5.10;99.90;;;;;;4959174;28;20022;-91
2021/01/30 05:02:06;;;;;;;3.78;1.23;;;5.10;99.90;;;;;;4961542;28;20018;-91
2021/01/30 05:04:41;;;;;;;9.40;2.20;;;5.10;99.90;;;;;;4961345;28;20118;-90
2021/01/30 05:07:29;;;;;;;5.88;1.27;;;5.10;99.90;;;;;;4993150;23;20509;-72
2021/01/30 05:10:00;;;;;;;2.95;1.00;;;5.10;99.90;;;;;;4976884;28;20030;-72
2021/01/30 05:12:52;;;;;;;7.05;1.10;;;5.10;99.90;;;;;;4976667;28;20019;-72
2021/01/30 05:15:21;;;;;;;2.73;0.70;;;5.10;99.90;;;;;;4994131;28;20446;-72
2021/01/30 05:18:01;;;;;;;5.82;1.08;;;5.10;99.90;;;;;;4993780;28;20038;-72
2021/01/30 05:20:32;;;;;;;4.93;0.90;;;5.10;99.90;;;;;;4994444;28;20386;-72
2021/01/30 05:23:00;;;;;;;9.85;1.02;;;5.20;99.90;;;;;;4991503;28;20124;-72
2021/01/30 05:25:27;;;;;;;5.15;1.10;;;5.20;99.90;;;;;;4976525;28;20117;-73
2021/01/30 05:28:05;;;;;;;8.00;1.67;;;5.20;99.90;;;;;;4994079;28;20026;-72
2021/01/30 05:30:31;;;;;;;7.00;1.90;;;5.20;99.90;;;;;;4976738;28;20033;-73
2021/01/30 05:33:02;;;;;;;6.18;1.65;;;5.20;99.90;;;;;;4993464;28;20478;-73
2021/01/30 05:35:44;;;;;;;2.45;1.00;;;5.20;99.90;;;;;;4993462;28;20033;-73
2021/01/30 05:38:22;;;;;;;5.00;1.03;;;5.20;99.90;;;;;;4993530;28;20105;-73
2021/01/30 05:40:56;;;;;;;3.17;1.00;;;5.20;99.90;;;;;;4993732;28;20037;-73
2021/01/30 05:44:01;;;;;;;10.40;2.95;;;5.10;99.90;;;;;;4992361;28;20014;-71
2021/01/30 05:46:30;;;;;;;6.78;1.42;;;5.10;99.90;;;;;;4932950;29;20032;-72
2021/01/30 05:49:01;;;;;;;7.53;1.45;;;5.20;99.90;;;;;;4982298;28;20049;-72
2021/01/30 05:51:40;;;;;;;5.28;1.55;;;5.20;99.90;;;;;;4975899;28;20022;-72
2021/01/30 05:54:06;;;;;;;7.15;1.27;;;5.20;99.90;;;;;;4993087;28;20022;-72
2021/01/30 05:56:40;;;;;;;5.00;0.95;;;5.20;99.90;;;;;;4993191;28;20441;-71
2021/01/30 05:59:22;;;;;;;5.93;1.58;;;5.30;99.90;;;;;;4993210;28;20022;-72
2021/01/30 06:01:47;;;;;;;6.25;1.08;;;5.40;99.90;;;;;;4993303;28;20022;-72
2021/01/30 06:04:13;;;;;;;3.15;1.05;;;5.40;99.90;;;;;;4992916;28;20096;-72
2021/01/30 06:06:41;;;;;;;6.05;1.05;;;5.40;99.90;;;;;;4992801;28;20061;-72
2021/01/30 06:09:32;;;;;;;8.20;1.70;;;5.40;99.90;;;;;;4993076;28;20105;-73
2021/01/30 06:12:02;;;;;;;6.47;1.30;;;5.50;99.90;;;;;;4974698;28;20065;-72
2021/01/30 06:14:39;;;;;;;5.00;1.02;;;5.40;99.90;;;;;;4975157;28;20247;-72
2021/01/30 06:17:25;;;;;;;5.57;1.92;;;5.30;99.90;;;;;;4975067;28;20023;-72
2021/01/30 06:20:18;;;;;;;6.32;0.93;;;5.40;99.90;;;;;;4992785;28;20050;-71
2021/01/30 06:22:45;;;;;;;6.50;1.23;;;5.50;99.90;;;;;;4975234;28;20475;-72
2021/01/30 06:25:36;;;;;;;6.65;1.40;;;5.50;99.90;;;;;;4992577;28;20138;-71
2021/01/30 06:28:07;;;;;;;2.88;0.93;;;5.40;99.90;;;;;;4992606;28;20501;-72
2021/01/30 06:30:37;;;;;;;7.60;1.43;;;5.50;99.90;;;;;;4992966;28;20076;-71
2021/01/30 06:33:26;;;;;;;6.35;1.52;;;5.50;99.90;;;;;;4992521;28;20041;-72
2021/01/30 06:36:07;;;;;;;3.42;1.17;;;5.50;99.90;;;;;;4991188;28;20087;-73
2021/01/30 06:38:38;;;;;;;2.97;1.08;;;5.40;99.90;;;;;;4992506;28;20438;-73
2021/01/30 06:41:05;;;;;;;4.63;1.33;;;5.40;99.90;;;;;;4992570;28;20138;-73
2021/01/30 06:43:46;;;;;;;4.57;1.10;;;5.40;99.90;;;;;;4992205;28;20026;-73
2021/01/30 06:46:20;;;;;;;3.80;1.15;;;5.40;99.90;;;;;;4992152;28;20073;-73
2021/01/30 06:48:52;;;;;;;4.35;1.40;;;5.50;99.90;;;;;;4992246;28;20033;-73
2021/01/30 06:51:30;;;;;;;13.45;4.07;;;5.50;99.90;;;;;;4992407;28;20041;-73
2021/01/30 06:54:16;;;;;;;11.65;3.65;;;5.50;99.90;;;;;;4990985;28;20121;-73
2021/01/30 06:56:43;;;;;;;10.80;3.38;;;5.60;99.90;;;;;;4992482;28;20049;-73
2021/01/30 06:59:15;;;;;;;6.30;2.05;;;5.70;99.90;;;;;;4992095;28;20060;-73
2021/01/30 07:01:45;;;;;;;8.57;1.45;;;5.60;99.90;;;;;;4992271;28;20026;-73
2021/01/30 07:04:54;;;;;;;16.33;1.52;;;5.60;99.90;;;;;;4992127;28;20378;-73
2021/01/30 07:07:32;;;;;;;7.47;1.90;;;5.50;99.90;;;;;;4991965;28;20433;-72
2021/01/30 07:10:19;;;;;;;13.85;1.40;;;5.50;99.90;;;;;;4991901;28;20026;-72
2021/01/30 07:13:12;;;;;;;17.23;2.42;;;5.60;99.90;;;;;;4991879;28;20026;-71
2021/01/30 07:16:01;;;;;;;4.88;1.15;;;5.60;99.90;;;;;;4991575;28;20204;-72
2021/01/30 07:18:32;;;;;;;7.72;1.20;;;5.50;99.90;;;;;;4963408;28;20161;-72
2021/01/30 07:21:19;;;;;;;2.67;0.90;;;5.60;99.90;;;;;;4974230;28;20034;-73
2021/01/30 07:24:09;;;;;;;5.40;1.25;;;5.60;99.90;;;;;;4991435;28;20026;-72
2021/01/30 07:26:44;;;;;;;4.90;1.15;;;5.70;99.90;;;;;;4991136;28;20038;-72
2021/01/30 07:29:31;;;;;;;7.55;1.42;;;5.70;99.90;;;;;;4991339;28;20416;-71
2021/01/30 07:32:20;;;;;;;6.95;2.20;;;5.80;99.90;;;;;;4990258;28;20033;-71
2021/01/30 07:35:18;;;;;;;10.25;3.50;;;5.90;99.70;;;;;;4991086;28;20057;-72
2021/01/30 07:37:56;;;;;;;11.18;1.92;;;5.90;99.60;;;;;;4988280;28;20584;-72
2021/01/30 07:40:40;;;;;;;6.43;1.50;;;6.00;99.10;;;;;;4991311;28;20026;-72
2021/01/30 07:43:15;;;;;;;6.68;1.33;;;5.90;98.20;;;;;;4991332;28;20097;-73
2021/01/30 07:45:56;;;;;;;10.93;4.07;;;6.00;98.30;;;;;;4990933;28;20104;-73
2021/01/30 07:48:30;;;;;;;8.75;2.40;;;6.00;98.20;;;;;;4984117;28;20109;-72
2021/01/30 07:51:03;;;;;;;4.75;1.60;;;6.00;99.20;;;;;;4970495;28;20031;-72
2021/01/30 07:53:29;;;;;;;7.45;2.78;;;6.00;98.00;;;;;;4970652;28;20026;-72
2021/01/30 07:56:13;;;;;;;8.07;1.85;;;5.90;98.20;;;;;;4971448;28;20031;-72
2021/01/30 07:58:47;;;;;;;4.78;1.52;;;5.80;98.50;;;;;;4971695;28;20027;-72
2021/01/30 08:01:38;;;;;;;2.40;1.13;;;5.80;99.30;;;;;;4954295;28;20038;-72
2021/01/30 08:04:12;;;;;;;7.18;1.60;;;5.80;98.70;;;;;;4954307;28;20030;-72
2021/01/30 08:07:01;;;;;;;4.60;1.25;;;5.90;99.30;;;;;;4971597;28;20046;-72
2021/01/30 08:09:31;;;;;;;5.88;1.30;;;5.90;98.90;;;;;;4953036;28;20434;-72
2021/01/30 08:12:07;;;;;;;3.38;0.95;;;5.90;99.40;;;;;;4971897;28;20447;-73
2021/01/30 08:14:33;;;;;;;4.82;1.20;;;6.00;99.60;;;;;;4971483;28;20535;-72
2021/01/30 08:17:11;;;;;;;7.03;1.60;;;6.00;98.70;;;;;;4970994;28;20070;-73
2021/01/30 08:20:15;;;;;;;2.65;1.15;;;6.20;98.40;;;;;;4971719;28;20031;-73
2021/01/30 08:23:06;;;;;;;6.07;1.25;;;6.30;97.90;;;;;;4930586;29;20020;-73
2021/01/30 08:25:38;;;;;;;7.97;1.70;;;6.30;97.50;;;;;;4930516;29;20020;-72
2021/01/30 08:28:30;;;;;;;;;;;6.30;96.90;;;;;;4958093;28;20042;-73
2021/01/30 08:30:56;;;;;;;1.38;0.82;;;6.30;97.30;;;;;;4948805;28;19906;-72
2021/01/30 08:33:22;;;;;;;8.93;1.85;;;6.30;97.20;;;;;;4977743;28;20032;-73
2021/01/30 08:35:55;;;;;;;6.78;1.27;;;6.30;96.90;;;;;;4959934;28;20083;-73
2021/01/30 08:38:20;;;;;;;7.38;2.03;;;6.40;96.70;;;;;;4994664;28;20029;-73
2021/01/30 08:40:59;;;;;;;8.40;1.35;;;6.40;96.20;;;;;;4994608;28;20505;-72
2021/01/30 08:43:45;;;;;;;8.05;2.33;;;6.50;96.00;;;;;;4994727;28;20527;-73
2021/01/30 08:46:27;;;;;;;5.57;1.30;;;6.60;95.30;;;;;;4960508;28;20081;-73
2021/01/30 08:49:14;;;;;;;5.90;1.55;;;6.70;95.00;;;;;;4977307;28;20039;-71
2021/01/30 08:52:12;;;;;;;10.23;1.48;;;6.70;94.50;;;;;;4976488;28;20027;-71
2021/01/30 08:54:39;;;;;;;5.13;1.40;;;6.90;94.90;;;;;;4988689;28;20054;-74
2021/01/30 08:57:27;;;;;;;3.40;1.23;;;7.00;94.20;;;;;;4994464;28;20023;-73
2021/01/30 08:59:53;;;;;;;6.18;1.13;;;6.90;93.50;;;;;;4994254;28;20033;-73
2021/01/30 09:02:28;;;;;;;4.20;1.27;;;7.00;93.90;;;;;;4994124;28;20037;-73
2021/01/30 09:05:09;;;;;;;4.47;1.10;;;7.10;93.50;;;;;;4976873;28;20049;-73
2021/01/30 09:07:48;;;;;;;10.65;1.48;;;7.10;92.70;;;;;;4993930;28;20069;-73
2021/01/30 09:10:18;;;;;;;5.82;2.03;;;7.10;92.00;;;;;;4976888;28;20030;-72
2021/01/30 09:13:02;;;;;;;5.53;1.38;;;7.10;92.30;;;;;;4976515;28;20031;-73
2021/01/30 09:15:40;;;;;;;7.45;1.40;;;7.20;92.20;;;;;;4976097;28;20022;-73
2021/01/30 09:18:31;;;;;;;10.00;1.40;;;7.10;91.50;;;;;;4976520;28;20038;-72
2021/01/30 09:21:08;;;;;;;5.53;1.02;;;7.10;91.40;;;;;;4979204;28;20172;-73
2021/01/30 09:24:11;;;;;;;5.78;1.70;;;7.10;91.10;;;;;;4993807;28;20033;-73
2021/01/30 09:26:59;;;;;;;6.80;1.65;;;7.30;91.10;;;;;;4980726;28;20434;-73
2021/01/30 09:29:44;;;;;;;4.85;1.15;;;7.40;90.70;;;;;;4993585;28;20018;-73
2021/01/30 09:32:13;;;;;;;4.00;1.30;;;7.50;90.60;;;;;;4993503;28;20030;-74
2021/01/30 09:34:48;;;;;;;12.57;1.40;;;7.60;89.40;;;;;;4993157;28;20050;-73
2021/01/30 09:37:40;;;;;;;7.85;1.70;;;7.90;89.30;;;;;;4976185;28;20482;-74
2021/01/30 09:40:24;;;;;;;4.75;1.35;;;7.90;87.80;;;;;;4993011;28;20064;-74
2021/01/30 09:43:04;;;;;;;4.43;1.33;;;8.00;88.60;;;;;;4991303;28;20109;-74
2021/01/30 09:45:32;;;;;;;7.85;1.75;;;8.00;86.20;;;;;;4992472;28;20052;-74
2021/01/30 09:48:02;;;;;;;13.30;1.40;;;8.00;84.90;;;;;;4985399;28;20026;-73
2021/01/30 09:50:34;;;;;;;8.18;1.38;;;8.10;84.40;;;;;;4973756;28;20364;-73
2021/01/30 09:53:08;;;;;;;8.65;2.45;;;8.20;85.20;;;;;;4973900;28;20595;-74
2021/01/30 09:55:37;;;;;;;11.98;1.73;;;8.40;84.00;;;;;;4956285;28;20137;-74
2021/01/30 09:58:20;;;;;;;11.18;1.65;;;8.70;83.80;;;;;;4983132;28;20030;-73
2021/01/30 10:00:47;;;;;;;10.23;1.80;;;8.80;81.10;;;;;;4975337;28;20081;-73
2021/01/30 10:03:22;;;;;;;14.13;2.55;;;9.00;81.20;;;;;;4992598;28;20109;-73
2021/01/30 10:05:51;;;;;;;8.82;4.05;;;9.20;80.10;;;;;;4974903;28;20034;-73
2021/01/30 10:08:28;;;;;;;11.52;2.72;;;9.40;79.10;;;;;;4993258;28;20022;-74
2021/01/30 10:11:07;;;;;;;11.27;2.42;;;9.80;77.10;;;;;;4992693;28;20025;-73
2021/01/30 10:13:35;;;;;;;9.10;1.40;;;10.30;74.80;;;;;;4992815;28;20114;-74
2021/01/30 10:16:03;;;;;;;6.28;1.70;;;10.80;72.70;;;;;;4992428;28;20736;-73
2021/01/30 10:18:31;;;;;;;7.63;1.67;;;11.50;70.40;;;;;;4992831;28;20026;-72
2021/01/30 10:21:01;;;;;;;7.07;2.45;;;11.90;68.00;;;;;;4975254;28;20497;-74
2021/01/30 10:23:33;;;;;;;7.75;1.85;;;12.20;66.00;;;;;;4992511;28;20026;-74
2021/01/30 10:26:29;;;;;;;;;;;12.50;64.10;;;;;;4992857;28;20026;-74
2021/01/30 10:28:55;;;;;;;4.75;1.35;;;12.70;62.00;;;;;;4968094;28;19949;-74
2021/01/30 10:31:31;;;;;;;4.55;1.20;;;13.00;61.80;;;;;;4992169;28;20772;-74
2021/01/30 10:34:14;;;;;;;4.07;1.50;;;13.40;59.30;;;;;;4992678;28;20022;-74
2021/01/30 10:36:48;;;;;;;6.82;1.50;;;13.20;57.50;;;;;;4975050;28;20027;-74
2021/01/30 10:39:15;;;;;;;8.30;2.13;;;13.60;57.70;;;;;;4959102;28;20026;-74
2021/01/30 10:41:41;;;;;;;3.75;1.00;;;13.90;56.10;;;;;;4992412;28;20034;-74
2021/01/30 10:44:10;;;;;;;7.75;1.20;;;14.30;54.80;;;;;;4992467;28;20026;-74
2021/01/30 10:46:40;;;;;;;3.80;1.10;;;13.40;53.40;;;;;;4974836;28;20030;-73
2021/01/30 10:49:19;;;;;;;9.40;1.50;;;12.80;55.10;;;;;;4992704;28;20026;-74
2021/01/30 10:51:46;;;;;;;4.47;1.67;;;13.00;54.70;;;;;;4992138;28;20430;-74
2021/01/30 10:54:27;;;;;;;3.80;1.35;;;12.60;54.70;;;;;;4958606;28;20088;-73
2021/01/30 10:57:02;;;;;;;5.60;1.80;;;12.80;56.40;;;;;;4991785;28;20414;-75
2021/01/30 10:59:29;;;;;;;6.95;1.90;;;12.90;55.10;;;;;;4992047;28;20242;-74
2021/01/30 11:01:55;;;;;;;5.03;1.70;;;13.40;54.50;;;;;;4991758;28;20462;-74
2021/01/30 11:04:27;;;;;;;8.15;1.73;;;13.90;53.90;;;;;;4974535;28;20085;-74
2021/01/30 11:06:59;;;;;;;3.80;1.05;;;13.60;54.20;;;;;;4999577;23;20514;-74
2021/01/30 11:09:31;;;;;;;12.00;1.70;;;13.00;53.50;;;;;;4990629;28;20432;-74
2021/01/30 11:12:25;;;;;;;5.07;0.95;;;12.90;55.00;;;;;;4993049;28;20030;-74
2021/01/30 11:14:51;;;;;;;4.43;1.42;;;13.40;53.80;;;;;;4993393;28;20030;-74
2021/01/30 11:17:31;;;;;;;10.68;1.45;;;13.80;53.50;;;;;;4993375;28;20057;-74
2021/01/30 11:19:58;;;;;;;6.00;1.42;;;14.20;53.20;;;;;;4993762;28;20064;-74
2021/01/30 11:22:26;;;;;;;5.95;1.33;;;14.60;51.70;;;;;;5010882;28;20044;-74
2021/01/30 11:24:53;;;;;;;10.63;1.88;;;14.40;52.00;;;;;;5010861;28;20060;-74
2021/01/30 11:27:34;;;;;;;7.63;1.75;;;14.20;51.30;;;;;;4993742;28;20121;-74
2021/01/30 11:30:20;;;;;;;6.97;1.48;;;13.80;52.40;;;;;;5011168;28;20026;-74
2021/01/30 11:32:55;;;;;;;8.18;1.60;;;12.80;54.40;;;;;;5010744;28;20030;-74
2021/01/30 11:35:34;;;;;;;6.72;1.45;;;12.10;57.00;;;;;;5011157;28;20373;-74
2021/01/30 11:38:11;;;;;;;7.85;1.70;;;11.80;58.10;;;;;;4993716;28;20033;-74
2021/01/30 11:40:39;;;;;;;6.03;2.03;;;11.70;58.90;;;;;;5011051;28;20048;-74
2021/01/30 11:43:05;;;;;;;19.20;2.17;;;12.00;59.20;;;;;;5011326;28;20025;-74
2021/01/30 11:45:30;;;;;;;7.75;1.60;;;12.60;59.30;;;;;;4993435;28;20125;-74
2021/01/30 11:47:56;;;;;;;8.73;2.08;;;13.00;57.30;;;;;;4993128;28;20370;-74
2021/01/30 11:50:22;;;;;;;6.25;1.40;;;13.60;56.70;;;;;;5010741;28;20101;-74
2021/01/30 11:52:48;;;;;;;5.90;1.65;;;14.10;55.20;;;;;;5010865;28;20037;-74
2021/01/30 11:55:14;;;;;;;4.88;1.40;;;13.90;55.00;;;;;;5009197;28;20030;-74
2021/01/30 11:57:40;;;;;;;13.05;1.98;;;14.00;54.80;;;;;;4976850;28;20092;-74
2021/01/30 12:00:08;;;;;;;7.25;1.73;;;14.20;55.10;;;;;;4993039;28;20022;-74
2021/01/30 12:02:37;;;;;;;7.45;2.03;;;14.00;55.80;;;;;;5009607;28;20026;-76
2021/01/30 12:05:05;;;;;;;14.57;2.22;;;13.10;56.10;;;;;;5010704;28;20362;-76
2021/01/30 12:07:31;;;;;;;12.38;2.40;;;12.40;58.40;;;;;;5010677;28;20036;-76
2021/01/30 12:09:57;;;;;;;10.90;2.03;;;11.60;61.10;;;;;;5012260;28;20105;-76
2021/01/30 12:12:22;;;;;;;12.15;4.45;;;11.30;62.40;;;;;;4996606;28;20026;-75
2021/01/30 12:14:48;;;;;;;10.15;2.20;;;11.00;63.90;;;;;;4996298;28;20117;-74
2021/01/30 12:17:18;;;;;;;7.97;1.73;;;10.80;64.60;;;;;;5013186;28;20057;-74
2021/01/30 12:19:44;;;;;;;10.45;2.33;;;10.80;65.40;;;;;;4980212;28;20054;-74
2021/01/30 12:22:10;;;;;;;11.10;2.25;;;10.70;66.20;;;;;;5013368;28;20056;-74
2021/01/30 12:24:35;;;;;;;11.95;2.30;;;10.60;66.90;;;;;;5013927;28;20034;-76
2021/01/30 12:27:01;;;;;;;14.23;2.60;;;10.50;66.90;;;;;;5013235;28;20152;-74
2021/01/30 12:29:27;;;;;;;15.70;2.35;;;10.20;68.40;;;;;;5014399;28;20064;-74
2021/01/30 12:31:53;;;;;;;9.18;2.22;;;10.00;68.30;;;;;;5014339;28;20030;-75
2021/01/30 12:34:18;;;;;;;11.88;2.72;;;10.10;69.50;;;;;;4996753;28;20022;-73
2021/01/30 12:36:44;;;;;;;9.77;2.20;;;9.90;69.50;;;;;;5014456;28;20034;-73
2021/01/30 12:39:10;;;;;;;10.40;1.83;;;9.90;70.30;;;;;;5014119;28;20076;-73
2021/01/30 12:41:35;;;;;;;7.90;2.08;;;9.90;70.60;;;;;;5014226;28;20026;-74
2021/01/30 12:44:01;;;;;;;17.30;2.65;;;9.90;70.30;;;;;;5012860;28;20113;-73
2021/01/30 12:46:42;;;;;;;8.48;2.25;;;10.00;70.60;;;;;;4996382;28;20063;-76
2021/01/30 12:49:09;;;;;;;14.15;2.15;;;10.10;70.30;;;;;;5014111;28;20030;-76
2021/01/30 12:51:34;;;;;;;21.75;3.00;;;9.90;70.20;;;;;;5012842;28;20030;-76
2021/01/30 12:54:00;;;;;;;12.73;1.73;;;9.90;70.80;;;;;;5013654;28;20088;-76
2021/01/30 12:56:26;;;;;;;8.02;2.10;;;9.90;71.00;;;;;;5013646;28;20108;-76
2021/01/30 12:58:51;;;;;;;10.93;2.00;;;10.00;71.40;;;;;;5014108;28;20092;-76
2021/01/30 13:01:17;;;;;;;11.88;1.92;;;10.10;71.10;;;;;;5013716;28;20022;-76
2021/01/30 13:03:43;;;;;;;11.70;2.22;;;10.10;71.50;;;;;;5014087;28;20097;-76
2021/01/30 13:06:09;;;;;;;8.50;2.78;;;10.00;71.80;;;;;;4979462;28;20535;-77
2021/01/30 13:08:34;;;;;;;10.77;3.08;;;9.90;73.50;;;;;;4996098;28;20038;-73
2021/01/30 13:11:00;;;;;;;8.05;2.00;;;9.90;75.40;;;;;;5013468;28;20029;-73
2021/01/30 13:13:26;;;;;;;10.20;1.90;;;10.00;75.70;;;;;;5013693;28;20057;-73
2021/01/30 13:15:51;;;;;;;6.38;2.10;;;9.80;75.00;;;;;;4995488;28;20125;-75
2021/01/30 13:18:17;;;;;;;6.82;2.13;;;9.80;77.00;;;;;;4995996;28;20021;-73
2021/01/30 13:20:43;;;;;;;9.55;2.63;;;9.80;76.20;;;;;;5013244;28;20018;-73
2021/01/30 13:23:09;;;;;;;9.85;3.30;;;9.80;77.10;;;;;;4995662;28;20025;-73
2021/01/30 13:25:34;;;;;;;5.50;2.17;;;9.90;78.60;;;;;;5013265;28;20033;-73
2021/01/30 13:28:00;;;;;;;8.45;1.80;;;9.80;78.60;;;;;;4995663;28;20542;-73
2021/01/30 13:30:30;;;;;;;9.48;2.92;;;9.50;76.60;;;;;;4995678;28;20038;-73
2021/01/30 13:32:57;;;;;;;6.00;1.75;;;9.30;79.60;;;;;;5012109;28;20028;-73
2021/01/30 13:35:26;;;;;;;9.00;1.80;;;9.30;80.80;;;;;;5012836;28;20029;-73
2021/01/30 13:37:52;;;;;;;6.63;1.60;;;9.30;80.60;;;;;;5011710;28;20076;-75